sensor_id;sensor_type;location;lat;lon;timestamp;pressure;altitude;pressure_sealevel;temperature
15607;BMP180;7865;50.918;4.510;2023-01-25T00:01:36;103143.00;;;0.90
15607;BMP180;7865;50.918;4.510;2023-01-25T00:06:38;103132.00;;;0.80
15607;BMP180;7865;50.918;4.510;2023-01-25T00:11:40;103131.00;;;0.80
15607;BMP180;7865;50.918;4.510;2023-01-25T00:16:44;103127.00;;;0.80
15607;BMP180;7865;50.918;4.510;2023-01-25T00:21:46;103121.00;;;0.80
15607;BMP180;7865;50.918;4.510;2023-01-25T00:26:48;103113.00;;;0.80
15607;BMP180;7865;50.918;4.510;2023-01-25T00:37:19;103098.00;;;0.90
15607;BMP180;7865;50.918;4.510;2023-01-25T00:42:24;103101.00;;;0.90
15607;BMP180;7865;50.918;4.510;2023-01-25T00:47:26;103104.00;;;0.90
15607;BMP180;7865;50.918;4.510;2023-01-25T00:52:28;103105.00;;;0.90
15607;BMP180;7865;50.918;4.510;2023-01-25T00:57:29;103091.00;;;0.90
15607;BMP180;7865;50.918;4.510;2023-01-25T01:02:31;103085.00;;;0.90
15607;BMP180;7865;50.918;4.510;2023-01-25T01:07:34;103090.00;;;0.80
15607;BMP180;7865;50.918;4.510;2023-01-25T01:12:35;103086.00;;;0.80
15607;BMP180;7865;50.918;4.510;2023-01-25T01:17:37;103072.00;;;0.80
15607;BMP180;7865;50.918;4.510;2023-01-25T01:22:40;103065.00;;;0.80
15607;BMP180;7865;50.918;4.510;2023-01-25T01:27:42;103066.00;;;0.80
15607;BMP180;7865;50.918;4.510;2023-01-25T01:32:44;103064.00;;;0.80
15607;BMP180;7865;50.918;4.510;2023-01-25T01:37:46;103077.00;;;0.80
15607;BMP180;7865;50.918;4.510;2023-01-25T01:43:00;103090.00;;;0.70
15607;BMP180;7865;50.918;4.510;2023-01-25T01:48:06;103086.00;;;0.70
15607;BMP180;7865;50.918;4.510;2023-01-25T01:53:09;103087.00;;;0.70
15607;BMP180;7865;50.918;4.510;2023-01-25T01:58:12;103089.00;;;0.70
15607;BMP180;7865;50.918;4.510;2023-01-25T02:09:51;103094.00;;;0.70
15607;BMP180;7865;50.918;4.510;2023-01-25T02:14:53;103092.00;;;0.70
15607;BMP180;7865;50.918;4.510;2023-01-25T02:25:17;103072.00;;;0.60
15607;BMP180;7865;50.918;4.510;2023-01-25T02:30:20;103079.00;;;0.60
15607;BMP180;7865;50.918;4.510;2023-01-25T02:35:35;103072.00;;;0.60
15607;BMP180;7865;50.918;4.510;2023-01-25T02:40:46;103064.00;;;0.60
15607;BMP180;7865;50.918;4.510;2023-01-25T02:45:55;103062.00;;;0.60
15607;BMP180;7865;50.918;4.510;2023-01-25T02:51:01;103068.00;;;0.60
15607;BMP180;7865;50.918;4.510;2023-01-25T02:56:03;103055.00;;;0.60
15607;BMP180;7865;50.918;4.510;2023-01-25T03:01:06;103067.00;;;0.60
15607;BMP180;7865;50.918;4.510;2023-01-25T03:06:08;103062.00;;;0.60
15607;BMP180;7865;50.918;4.510;2023-01-25T03:11:10;103064.00;;;0.60
15607;BMP180;7865;50.918;4.510;2023-01-25T03:16:13;103055.00;;;0.60
15607;BMP180;7865;50.918;4.510;2023-01-25T03:21:18;103057.00;;;0.50
15607;BMP180;7865;50.918;4.510;2023-01-25T03:26:22;103047.00;;;0.50
15607;BMP180;7865;50.918;4.510;2023-01-25T03:31:45;103047.00;;;0.50
15607;BMP180;7865;50.918;4.510;2023-01-25T03:36:49;103044.00;;;0.50
15607;BMP180;7865;50.918;4.510;2023-01-25T03:41:52;103034.00;;;0.50
15607;BMP180;7865;50.918;4.510;2023-01-25T03:46:54;103033.00;;;0.50
15607;BMP180;7865;50.918;4.510;2023-01-25T03:51:58;103028.00;;;0.40
15607;BMP180;7865;50.918;4.510;2023-01-25T03:57:08;103022.00;;;0.30
15607;BMP180;7865;50.918;4.510;2023-01-25T04:02:33;103035.00;;;0.30
15607;BMP180;7865;50.918;4.510;2023-01-25T04:07:37;103035.00;;;0.30
15607;BMP180;7865;50.918;4.510;2023-01-25T04:12:41;103024.00;;;0.20
15607;BMP180;7865;50.918;4.510;2023-01-25T04:17:43;103031.00;;;0.20
15607;BMP180;7865;50.918;4.510;2023-01-25T04:22:53;103022.00;;;0.20
15607;BMP180;7865;50.918;4.510;2023-01-25T04:28:01;103017.00;;;0.10
15607;BMP180;7865;50.918;4.510;2023-01-25T04:33:03;103007.00;;;0.10
15607;BMP180;7865;50.918;4.510;2023-01-25T04:38:06;103005.00;;;0.20
15607;BMP180;7865;50.918;4.510;2023-01-25T04:43:13;103010.00;;;0.20
15607;BMP180;7865;50.918;4.510;2023-01-25T04:48:17;103010.00;;;0.20
15607;BMP180;7865;50.918;4.510;2023-01-25T04:53:25;103016.00;;;0.20
15607;BMP180;7865;50.918;4.510;2023-01-25T04:58:30;103009.00;;;0.20
15607;BMP180;7865;50.918;4.510;2023-01-25T05:03:32;103009.00;;;0.20
15607;BMP180;7865;50.918;4.510;2023-01-25T05:08:34;103013.00;;;0.20
15607;BMP180;7865;50.918;4.510;2023-01-25T05:13:37;102993.00;;;0.20
15607;BMP180;7865;50.918;4.510;2023-01-25T05:18:56;103003.00;;;0.20
15607;BMP180;7865;50.918;4.510;2023-01-25T05:24:07;102997.00;;;0.20
15607;BMP180;7865;50.918;4.510;2023-01-25T05:29:09;102990.00;;;0.20
15607;BMP180;7865;50.918;4.510;2023-01-25T05:34:23;102980.00;;;0.20
15607;BMP180;7865;50.918;4.510;2023-01-25T05:39:28;102973.00;;;0.10
15607;BMP180;7865;50.918;4.510;2023-01-25T05:44:30;102970.00;;;0.10
15607;BMP180;7865;50.918;4.510;2023-01-25T05:49:32;102974.00;;;0.10
15607;BMP180;7865;50.918;4.510;2023-01-25T05:54:36;102978.00;;;0.10
15607;BMP180;7865;50.918;4.510;2023-01-25T05:59:39;102960.00;;;0.10
15607;BMP180;7865;50.918;4.510;2023-01-25T06:04:43;102971.00;;;0.10
15607;BMP180;7865;50.918;4.510;2023-01-25T06:09:47;102974.00;;;0.10
15607;BMP180;7865;50.918;4.510;2023-01-25T06:14:49;102975.00;;;0.10
15607;BMP180;7865;50.918;4.510;2023-01-25T06:19:50;102975.00;;;0.10
15607;BMP180;7865;50.918;4.510;2023-01-25T06:25:11;102973.00;;;0.00
15607;BMP180;7865;50.918;4.510;2023-01-25T06:30:13;102960.00;;;0.00
15607;BMP180;7865;50.918;4.510;2023-01-25T06:35:15;102967.00;;;0.00
15607;BMP180;7865;50.918;4.510;2023-01-25T06:40:18;102962.00;;;-0.10
15607;BMP180;7865;50.918;4.510;2023-01-25T06:45:20;102954.00;;;-0.10
15607;BMP180;7865;50.918;4.510;2023-01-25T06:50:22;102953.00;;;-0.10
15607;BMP180;7865;50.918;4.510;2023-01-25T06:55:27;102966.00;;;-0.10
15607;BMP180;7865;50.918;4.510;2023-01-25T07:00:29;102973.00;;;-0.10
15607;BMP180;7865;50.918;4.510;2023-01-25T07:05:31;102957.00;;;-0.10
15607;BMP180;7865;50.918;4.510;2023-01-25T07:10:33;102948.00;;;-0.10
15607;BMP180;7865;50.918;4.510;2023-01-25T07:15:35;102959.00;;;-0.20
15607;BMP180;7865;50.918;4.510;2023-01-25T07:20:38;102955.00;;;-0.20
15607;BMP180;7865;50.918;4.510;2023-01-25T07:25:48;102948.00;;;-0.20
15607;BMP180;7865;50.918;4.510;2023-01-25T07:30:50;102957.00;;;-0.20
15607;BMP180;7865;50.918;4.510;2023-01-25T07:35:52;102946.00;;;-0.20
15607;BMP180;7865;50.918;4.510;2023-01-25T07:40:54;102951.00;;;-0.30
15607;BMP180;7865;50.918;4.510;2023-01-25T07:46:08;102946.00;;;-0.30
15607;BMP180;7865;50.918;4.510;2023-01-25T07:51:14;102952.00;;;-0.30
15607;BMP180;7865;50.918;4.510;2023-01-25T07:56:32;102956.00;;;-0.20
15607;BMP180;7865;50.918;4.510;2023-01-25T08:01:39;102946.00;;;-0.20
15607;BMP180;7865;50.918;4.510;2023-01-25T08:06:40;102940.00;;;-0.10
15607;BMP180;7865;50.918;4.510;2023-01-25T08:11:42;102936.00;;;0.00
15607;BMP180;7865;50.918;4.510;2023-01-25T08:16:44;102936.00;;;0.00
15607;BMP180;7865;50.918;4.510;2023-01-25T08:21:46;102941.00;;;0.10
15607;BMP180;7865;50.918;4.510;2023-01-25T08:26:48;102931.00;;;0.10
15607;BMP180;7865;50.918;4.510;2023-01-25T08:31:50;102932.00;;;0.20
15607;BMP180;7865;50.918;4.510;2023-01-25T08:36:52;102942.00;;;0.20
15607;BMP180;7865;50.918;4.510;2023-01-25T08:41:54;102932.00;;;0.30
15607;BMP180;7865;50.918;4.510;2023-01-25T08:46:56;102923.00;;;0.20
15607;BMP180;7865;50.918;4.510;2023-01-25T08:51:58;102917.00;;;0.20
15607;BMP180;7865;50.918;4.510;2023-01-25T08:57:00;102919.00;;;0.20
15607;BMP180;7865;50.918;4.510;2023-01-25T09:02:02;102914.00;;;0.30
15607;BMP180;7865;50.918;4.510;2023-01-25T09:07:04;102917.00;;;0.40
15607;BMP180;7865;50.918;4.510;2023-01-25T09:12:08;102916.00;;;0.50
15607;BMP180;7865;50.918;4.510;2023-01-25T09:17:10;102910.00;;;0.60
15607;BMP180;7865;50.918;4.510;2023-01-25T09:22:12;102921.00;;;0.60
15607;BMP180;7865;50.918;4.510;2023-01-25T09:27:14;102916.00;;;0.60
15607;BMP180;7865;50.918;4.510;2023-01-25T09:32:16;102924.00;;;0.60
15607;BMP180;7865;50.918;4.510;2023-01-25T09:37:26;102922.00;;;0.50
15607;BMP180;7865;50.918;4.510;2023-01-25T09:48:02;102918.00;;;0.50
15607;BMP180;7865;50.918;4.510;2023-01-25T09:53:18;102918.00;;;0.60
15607;BMP180;7865;50.918;4.510;2023-01-25T09:58:33;102912.00;;;0.70
15607;BMP180;7865;50.918;4.510;2023-01-25T10:04:00;102904.00;;;0.70
15607;BMP180;7865;50.918;4.510;2023-01-25T10:14:32;102900.00;;;0.60
15607;BMP180;7865;50.918;4.510;2023-01-25T10:25:34;102895.00;;;0.40
15607;BMP180;7865;50.918;4.510;2023-01-25T10:30:42;102891.00;;;0.50
15607;BMP180;7865;50.918;4.510;2023-01-25T10:35:48;102888.00;;;0.50
15607;BMP180;7865;50.918;4.510;2023-01-25T10:40:59;102871.00;;;0.60
15607;BMP180;7865;50.918;4.510;2023-01-25T10:46:09;102862.00;;;0.60
15607;BMP180;7865;50.918;4.510;2023-01-25T10:51:32;102855.00;;;0.50
15607;BMP180;7865;50.918;4.510;2023-01-25T10:56:38;102842.00;;;0.50
15607;BMP180;7865;50.918;4.510;2023-01-25T11:01:40;102833.00;;;0.70
15607;BMP180;7865;50.918;4.510;2023-01-25T11:06:48;102815.00;;;0.80
15607;BMP180;7865;50.918;4.510;2023-01-25T11:11:54;102804.00;;;0.90
15607;BMP180;7865;50.918;4.510;2023-01-25T11:16:58;102795.00;;;1.00
15607;BMP180;7865;50.918;4.510;2023-01-25T11:22:22;102787.00;;;1.10
15607;BMP180;7865;50.918;4.510;2023-01-25T11:27:26;102771.00;;;1.10
15607;BMP180;7865;50.918;4.510;2023-01-25T11:32:28;102761.00;;;1.20
15607;BMP180;7865;50.918;4.510;2023-01-25T11:37:43;102752.00;;;1.30
15607;BMP180;7865;50.918;4.510;2023-01-25T11:43:11;102745.00;;;1.20
15607;BMP180;7865;50.918;4.510;2023-01-25T11:59:29;102700.00;;;1.30
15607;BMP180;7865;50.918;4.510;2023-01-25T12:09:52;102678.00;;;1.10
15607;BMP180;7865;50.918;4.510;2023-01-25T12:30:27;102629.00;;;1.40
15607;BMP180;7865;50.918;4.510;2023-01-25T12:35:42;102623.00;;;1.50
15607;BMP180;7865;50.918;4.510;2023-01-25T12:40:58;102607.00;;;1.40
15607;BMP180;7865;50.918;4.510;2023-01-25T12:46:10;102596.00;;;1.60
15607;BMP180;7865;50.918;4.510;2023-01-25T12:51:15;102579.00;;;1.50
15607;BMP180;7865;50.918;4.510;2023-01-25T13:01:54;102553.00;;;1.50
15607;BMP180;7865;50.918;4.510;2023-01-25T13:07:06;102547.00;;;1.50
15607;BMP180;7865;50.918;4.510;2023-01-25T13:12:11;102539.00;;;1.50
15607;BMP180;7865;50.918;4.510;2023-01-25T13:17:30;102531.00;;;1.70
15607;BMP180;7865;50.918;4.510;2023-01-25T13:27:45;102526.00;;;1.60
15607;BMP180;7865;50.918;4.510;2023-01-25T13:38:00;102499.00;;;1.60
15607;BMP180;7865;50.918;4.510;2023-01-25T13:48:18;102482.00;;;1.60
15607;BMP180;7865;50.918;4.510;2023-01-25T13:53:24;102476.00;;;1.50
15607;BMP180;7865;50.918;4.510;2023-01-25T13:58:46;102474.00;;;1.50
15607;BMP180;7865;50.918;4.510;2023-01-25T14:03:51;102468.00;;;1.60
15607;BMP180;7865;50.918;4.510;2023-01-25T14:08:58;102466.00;;;1.60
15607;BMP180;7865;50.918;4.510;2023-01-25T14:19:24;102476.00;;;1.60
15607;BMP180;7865;50.918;4.510;2023-01-25T14:24:26;102478.00;;;1.60
15607;BMP180;7865;50.918;4.510;2023-01-25T14:29:28;102481.00;;;1.60
15607;BMP180;7865;50.918;4.510;2023-01-25T14:34:34;102473.00;;;1.40
15607;BMP180;7865;50.918;4.510;2023-01-25T14:39:35;102472.00;;;1.30
15607;BMP180;7865;50.918;4.510;2023-01-25T14:44:38;102479.00;;;1.30
15607;BMP180;7865;50.918;4.510;2023-01-25T14:49:40;102476.00;;;1.40
15607;BMP180;7865;50.918;4.510;2023-01-25T14:54:45;102471.00;;;1.40
15607;BMP180;7865;50.918;4.510;2023-01-25T14:59:50;102462.00;;;1.30
15607;BMP180;7865;50.918;4.510;2023-01-25T15:15:20;102449.00;;;0.80
15607;BMP180;7865;50.918;4.510;2023-01-25T15:20:30;102450.00;;;0.80
15607;BMP180;7865;50.918;4.510;2023-01-25T15:25:32;102457.00;;;0.70
15607;BMP180;7865;50.918;4.510;2023-01-25T15:30:34;102433.00;;;0.50
15607;BMP180;7865;50.918;4.510;2023-01-25T15:35:36;102433.00;;;0.40
15607;BMP180;7865;50.918;4.510;2023-01-25T15:40:37;102436.00;;;0.30
15607;BMP180;7865;50.918;4.510;2023-01-25T15:45:41;102431.00;;;0.20
15607;BMP180;7865;50.918;4.510;2023-01-25T15:50:44;102416.00;;;0.20
15607;BMP180;7865;50.918;4.510;2023-01-25T15:55:48;102427.00;;;0.10
15607;BMP180;7865;50.918;4.510;2023-01-25T16:00:51;102429.00;;;0.00
15607;BMP180;7865;50.918;4.510;2023-01-25T16:06:00;102417.00;;;0.00
15607;BMP180;7865;50.918;4.510;2023-01-25T16:11:02;102419.00;;;-0.10
15607;BMP180;7865;50.918;4.510;2023-01-25T16:16:04;102422.00;;;-0.10
15607;BMP180;7865;50.918;4.510;2023-01-25T16:21:11;102437.00;;;-0.30
15607;BMP180;7865;50.918;4.510;2023-01-25T16:26:23;102446.00;;;-0.40
15607;BMP180;7865;50.918;4.510;2023-01-25T16:31:26;102444.00;;;-0.50
15607;BMP180;7865;50.918;4.510;2023-01-25T16:36:34;102445.00;;;-0.60
15607;BMP180;7865;50.918;4.510;2023-01-25T16:41:38;102445.00;;;-0.70
15607;BMP180;7865;50.918;4.510;2023-01-25T16:46:40;102452.00;;;-0.90
15607;BMP180;7865;50.918;4.510;2023-01-25T16:51:42;102465.00;;;-0.80
15607;BMP180;7865;50.918;4.510;2023-01-25T16:56:46;102475.00;;;-0.80
15607;BMP180;7865;50.918;4.510;2023-01-25T17:01:48;102468.00;;;-0.80
15607;BMP180;7865;50.918;4.510;2023-01-25T17:06:51;102466.00;;;-1.00
15607;BMP180;7865;50.918;4.510;2023-01-25T17:11:53;102453.00;;;-1.10
15607;BMP180;7865;50.918;4.510;2023-01-25T17:16:55;102447.00;;;-1.10
15607;BMP180;7865;50.918;4.510;2023-01-25T17:21:57;102454.00;;;-1.10
15607;BMP180;7865;50.918;4.510;2023-01-25T17:27:00;102441.00;;;-1.00
15607;BMP180;7865;50.918;4.510;2023-01-25T17:32:02;102418.00;;;-0.90
15607;BMP180;7865;50.918;4.510;2023-01-25T17:37:04;102403.00;;;-0.80
15607;BMP180;7865;50.918;4.510;2023-01-25T17:42:05;102402.00;;;-0.80
15607;BMP180;7865;50.918;4.510;2023-01-25T17:47:09;102391.00;;;-0.70
15607;BMP180;7865;50.918;4.510;2023-01-25T17:52:11;102374.00;;;-0.70
15607;BMP180;7865;50.918;4.510;2023-01-25T17:57:14;102353.00;;;-0.60
15607;BMP180;7865;50.918;4.510;2023-01-25T18:02:18;102333.00;;;-0.60
15607;BMP180;7865;50.918;4.510;2023-01-25T18:07:21;102328.00;;;-0.70
15607;BMP180;7865;50.918;4.510;2023-01-25T18:12:23;102297.00;;;-0.70
15607;BMP180;7865;50.918;4.510;2023-01-25T18:17:25;102286.00;;;-0.70
15607;BMP180;7865;50.918;4.510;2023-01-25T18:22:28;102271.00;;;-0.60
15607;BMP180;7865;50.918;4.510;2023-01-25T18:27:30;102265.00;;;-0.70
15607;BMP180;7865;50.918;4.510;2023-01-25T18:32:32;102243.00;;;-0.70
15607;BMP180;7865;50.918;4.510;2023-01-25T18:37:34;102245.00;;;-0.60
15607;BMP180;7865;50.918;4.510;2023-01-25T18:42:44;102228.00;;;-0.60
15607;BMP180;7865;50.918;4.510;2023-01-25T18:47:46;102219.00;;;-0.60
15607;BMP180;7865;50.918;4.510;2023-01-25T18:52:48;102208.00;;;-0.60
15607;BMP180;7865;50.918;4.510;2023-01-25T18:57:50;102221.00;;;-0.60
15607;BMP180;7865;50.918;4.510;2023-01-25T19:02:52;102222.00;;;-0.60
15607;BMP180;7865;50.918;4.510;2023-01-25T19:07:54;102223.00;;;-0.60
15607;BMP180;7865;50.918;4.510;2023-01-25T19:12:56;102216.00;;;-0.60
15607;BMP180;7865;50.918;4.510;2023-01-25T19:17:58;102206.00;;;-0.50
15607;BMP180;7865;50.918;4.510;2023-01-25T19:23:00;102195.00;;;-0.50
15607;BMP180;7865;50.918;4.510;2023-01-25T19:28:02;102196.00;;;-0.50
15607;BMP180;7865;50.918;4.510;2023-01-25T19:33:04;102191.00;;;-0.40
15607;BMP180;7865;50.918;4.510;2023-01-25T19:38:06;102163.00;;;-0.40
15607;BMP180;7865;50.918;4.510;2023-01-25T19:43:08;102145.00;;;-0.40
15607;BMP180;7865;50.918;4.510;2023-01-25T19:48:10;102157.00;;;-0.40
15607;BMP180;7865;50.918;4.510;2023-01-25T19:53:12;102165.00;;;-0.40
15607;BMP180;7865;50.918;4.510;2023-01-25T19:58:16;102170.00;;;-0.50
15607;BMP180;7865;50.918;4.510;2023-01-25T20:03:18;102158.00;;;-0.40
15607;BMP180;7865;50.918;4.510;2023-01-25T20:08:20;102145.00;;;-0.50
15607;BMP180;7865;50.918;4.510;2023-01-25T20:13:22;102129.00;;;-0.50
15607;BMP180;7865;50.918;4.510;2023-01-25T20:18:24;102134.00;;;-0.50
15607;BMP180;7865;50.918;4.510;2023-01-25T20:23:31;102121.00;;;-0.60
15607;BMP180;7865;50.918;4.510;2023-01-25T20:28:34;102125.00;;;-0.60
15607;BMP180;7865;50.918;4.510;2023-01-25T20:33:37;102126.00;;;-0.70
15607;BMP180;7865;50.918;4.510;2023-01-25T20:38:39;102125.00;;;-0.70
15607;BMP180;7865;50.918;4.510;2023-01-25T20:43:46;102116.00;;;-0.60
15607;BMP180;7865;50.918;4.510;2023-01-25T20:48:52;102102.00;;;-0.60
15607;BMP180;7865;50.918;4.510;2023-01-25T20:53:55;102113.00;;;-0.60
15607;BMP180;7865;50.918;4.510;2023-01-25T20:58:57;102115.00;;;-0.60
15607;BMP180;7865;50.918;4.510;2023-01-25T21:03:59;102111.00;;;-0.60
15607;BMP180;7865;50.918;4.510;2023-01-25T21:09:03;102109.00;;;-0.50
15607;BMP180;7865;50.918;4.510;2023-01-25T21:14:05;102100.00;;;-0.50
15607;BMP180;7865;50.918;4.510;2023-01-25T21:19:07;102090.00;;;-0.50
15607;BMP180;7865;50.918;4.510;2023-01-25T21:24:09;102083.00;;;-0.50
15607;BMP180;7865;50.918;4.510;2023-01-25T21:29:12;102086.00;;;-0.50
15607;BMP180;7865;50.918;4.510;2023-01-25T21:34:14;102083.00;;;-0.50
15607;BMP180;7865;50.918;4.510;2023-01-25T21:39:17;102058.00;;;-0.50
15607;BMP180;7865;50.918;4.510;2023-01-25T21:44:19;102074.00;;;-0.50
15607;BMP180;7865;50.918;4.510;2023-01-25T21:49:39;102081.00;;;-0.50
15607;BMP180;7865;50.918;4.510;2023-01-25T21:55:00;102064.00;;;-0.50
15607;BMP180;7865;50.918;4.510;2023-01-25T22:00:03;102059.00;;;-0.60
15607;BMP180;7865;50.918;4.510;2023-01-25T22:05:06;102061.00;;;-0.50
15607;BMP180;7865;50.918;4.510;2023-01-25T22:10:10;102061.00;;;-0.50
15607;BMP180;7865;50.918;4.510;2023-01-25T22:15:12;102057.00;;;-0.50
15607;BMP180;7865;50.918;4.510;2023-01-25T22:20:14;102053.00;;;-0.50
15607;BMP180;7865;50.918;4.510;2023-01-25T22:25:16;102055.00;;;-0.50
15607;BMP180;7865;50.918;4.510;2023-01-25T22:30:18;102061.00;;;-0.60
15607;BMP180;7865;50.918;4.510;2023-01-25T22:35:20;102076.00;;;-0.60
15607;BMP180;7865;50.918;4.510;2023-01-25T22:40:22;102069.00;;;-0.60
15607;BMP180;7865;50.918;4.510;2023-01-25T22:45:24;102063.00;;;-0.60
15607;BMP180;7865;50.918;4.510;2023-01-25T22:50:26;102064.00;;;-0.60
15607;BMP180;7865;50.918;4.510;2023-01-25T22:55:28;102043.00;;;-0.50
15607;BMP180;7865;50.918;4.510;2023-01-25T23:00:31;102045.00;;;-0.50
15607;BMP180;7865;50.918;4.510;2023-01-25T23:05:33;102040.00;;;-0.50
15607;BMP180;7865;50.918;4.510;2023-01-25T23:10:34;102032.00;;;-0.50
15607;BMP180;7865;50.918;4.510;2023-01-25T23:15:40;102024.00;;;-0.50
15607;BMP180;7865;50.918;4.510;2023-01-25T23:20:44;102026.00;;;-0.50
15607;BMP180;7865;50.918;4.510;2023-01-25T23:25:46;102021.00;;;-0.50
15607;BMP180;7865;50.918;4.510;2023-01-25T23:30:48;102012.00;;;-0.50
15607;BMP180;7865;50.918;4.510;2023-01-25T23:35:50;102006.00;;;-0.50
15607;BMP180;7865;50.918;4.510;2023-01-25T23:40:52;102013.00;;;-0.60
15607;BMP180;7865;50.918;4.510;2023-01-25T23:45:54;102000.00;;;-0.60
15607;BMP180;7865;50.918;4.510;2023-01-25T23:50:56;102002.00;;;-0.60
15607;BMP180;7865;50.918;4.510;2023-01-25T23:56:00;101997.00;;;-0.50
